Time;durP1;ratioP1;P1;durP2;ratioP2;P2;SDS_P1;SDS_P2;PMS_P1;PMS_P2;Temp;Humidity;BMP_temperature;BMP_pressure;BME280_temperature;BME280_humidity;BME280_pressure;Samples;Min_cycle;Max_cycle;Signal;HPM_P1;HPM_P2
2023/06/02 00:03:33;;;;;;;35.50;10.60;;;;;;;13.66;90.94;100110.19;179933;1264;45925;-60
2023/06/02 00:07:37;;;;;;;17.00;8.00;;;;;;;13.66;90.69;100112.52;179938;1263;45982;-60
2023/06/02 00:11:56;;;;;;;11.10;7.70;;;;;;;13.62;90.70;100111.45;179854;1263;58328;-61
2023/06/02 00:16:00;;;;;;;9.60;6.90;;;;;;;13.59;90.86;100112.69;179906;1263;45076;-60
2023/06/02 00:20:05;;;;;;;10.50;7.70;;;;;;;13.55;91.42;100112.14;179971;1263;45145;-60
2023/06/02 00:24:19;;;;;;;10.50;6.90;;;;;;;13.53;91.72;100110.88;179885;1263;46056;-60
2023/06/02 00:28:22;;;;;;;9.10;7.10;;;;;;;13.52;91.75;100110.90;179911;1263;43683;-61
2023/06/02 00:32:25;;;;;;;11.00;7.40;;;;;;;13.49;91.74;100111.23;179901;1264;58500;-61
2023/06/02 00:36:33;;;;;;;9.20;8.00;;;;;;;13.47;91.93;100113.45;179893;1263;44131;-61
2023/06/02 00:40:37;;;;;;;9.10;6.70;;;;;;;13.51;91.36;100114.98;179918;1263;44823;-61
2023/06/02 00:44:39;;;;;;;12.10;6.40;;;;;;;13.49;90.93;100111.58;179871;1263;44034;-61
2023/06/02 00:48:51;;;;;;;14.40;8.00;;;;;;;13.47;91.06;100116.29;179934;1264;44765;-61
2023/06/02 00:52:59;;;;;;;7.80;6.80;;;;;;;13.49;90.50;100117.88;179817;1263;58378;-61
2023/06/02 00:57:03;;;;;;;13.60;7.20;;;;;;;13.45;90.81;100117.54;179792;1263;44651;-61
2023/06/02 01:01:11;;;;;;;7.10;6.40;;;;;;;13.41;91.07;100115.16;179861;1263;43803;-61
2023/06/02 01:05:14;;;;;;;7.90;5.90;;;;;;;13.36;92.80;100112.88;180088;1263;43647;-61
2023/06/02 01:09:23;;;;;;;10.80;6.30;;;;;;;13.33;92.61;100112.21;180106;1263;43616;-60
2023/06/02 01:13:27;;;;;;;11.90;6.90;;;;;;;13.31;92.02;100108.55;179925;1264;58084;-61
2023/06/02 01:17:35;;;;;;;6.60;5.70;;;;;;;13.30;91.47;100108.02;179847;1263;45911;-60
2023/06/02 01:21:57;;;;;;;9.70;6.30;;;;;;;13.26;90.56;100113.77;179931;1263;46385;-61
2023/06/02 01:26:01;;;;;;;7.70;5.70;;;;;;;13.18;90.28;100116.11;180009;1263;45965;-61
2023/06/02 01:30:05;;;;;;;11.30;6.60;;;;;;;13.13;90.73;100110.87;179786;1263;45046;-61
2023/06/02 01:34:46;;;;;;;7.10;5.90;;;;;;;13.09;90.00;100110.95;179975;1263;58534;-61
2023/06/02 01:38:56;;;;;;;10.10;6.50;;;;;;;13.04;89.55;100112.65;179853;1263;43656;-60
2023/06/02 01:43:05;;;;;;;6.60;5.00;;;;;;;12.93;89.72;100115.81;179907;1263;43524;-61
2023/06/02 01:47:11;;;;;;;8.10;5.90;;;;;;;12.91;89.09;100121.58;179957;1264;46029;-61
2023/06/02 01:52:13;;;;;;;8.60;5.40;;;;;;;12.82;89.53;100126.46;179804;1263;44969;-61
2023/06/02 01:56:17;;;;;;;7.30;5.50;;;;;;;12.68;92.64;100133.77;179789;1263;57968;-61
2023/06/02 02:00:20;;;;;;;7.60;6.30;;;;;;;12.66;92.31;100136.66;179731;1264;45922;-61
2023/06/02 02:04:23;;;;;;;10.70;5.60;;;;;;;12.67;93.24;100141.20;179757;1264;44160;-61
2023/06/02 02:08:26;;;;;;;7.50;5.50;;;;;;;12.68;94.92;100137.88;179767;1265;45278;-61
2023/06/02 02:12:29;;;;;;;9.50;6.80;;;;;;;12.71;96.98;100135.70;179923;1263;43546;-61
2023/06/02 02:17:28;;;;;;;9.00;7.20;;;;;;;12.81;98.48;100134.36;179777;1265;59111;-61
2023/06/02 02:21:32;;;;;;;12.40;7.60;;;;;;;13.01;99.95;100135.22;179825;1263;43548;-61
2023/06/02 02:25:35;;;;;;;9.00;7.10;;;;;;;13.12;100.00;100135.36;179939;1264;46129;-61
2023/06/02 02:29:39;;;;;;;12.10;8.60;;;;;;;13.19;100.00;100132.63;179849;1263;45953;-61
2023/06/02 02:33:42;;;;;;;10.30;7.20;;;;;;;13.27;100.00;100132.55;179857;1264;43747;-61
2023/06/02 02:37:46;;;;;;;14.20;8.70;;;;;;;13.32;100.00;100129.80;179857;1264;58055;-61
2023/06/02 02:42:47;;;;;;;17.20;9.10;;;;;;;13.36;100.00;100132.23;179841;1263;43767;-61
2023/06/02 02:46:50;;;;;;;12.60;7.90;;;;;;;13.32;100.00;100137.08;179874;1263;46111;-60
2023/06/02 02:50:53;;;;;;;12.50;7.50;;;;;;;13.19;100.00;100140.96;179910;1263;43849;-61
2023/06/02 02:55:51;;;;;;;16.00;8.60;;;;;;;13.12;100.00;100145.51;180148;1265;44192;-61
2023/06/02 02:59:57;;;;;;;14.60;8.50;;;;;;;13.21;100.00;100142.55;180130;1263;57021;-61
2023/06/02 03:08:58;;;;;;;16.90;10.50;;;;;;;13.39;100.00;100148.16;180106;1264;83288;-61
2023/06/02 03:13:01;;;;;;;14.20;9.50;;;;;;;13.48;100.00;100147.94;179806;1263;43753;-61
2023/06/02 03:17:06;;;;;;;13.70;9.70;;;;;;;13.49;100.00;100145.77;179936;1263;46565;-60
2023/06/02 03:21:10;;;;;;;15.40;9.40;;;;;;;13.56;100.00;100145.13;179887;1263;58501;-60
2023/06/02 03:25:23;;;;;;;13.30;9.10;;;;;;;13.64;100.00;100147.79;180012;1263;43784;-60
2023/06/02 03:29:27;;;;;;;11.80;9.00;;;;;;;13.73;100.00;100150.85;180062;1263;44588;-60
2023/06/02 03:33:30;;;;;;;17.10;10.30;;;;;;;13.80;100.00;100153.58;179941;1263;46115;-60
2023/06/02 03:37:38;;;;;;;22.60;9.20;;;;;;;13.87;100.00;100157.50;179823;1265;45956;-60
2023/06/02 03:41:40;;;;;;;16.40;9.20;;;;;;;13.89;100.00;100161.27;179734;1264;57410;-60
2023/06/02 03:45:45;;;;;;;13.00;10.40;;;;;;;13.98;100.00;100167.84;179614;1264;45997;-60
2023/06/02 03:49:50;;;;;;;12.70;8.80;;;;;;;14.02;100.00;100169.56;179942;1262;45952;-60
2023/06/02 03:53:52;;;;;;;10.00;8.30;;;;;;;14.03;100.00;100172.36;180125;1262;45904;-60
2023/06/02 03:57:57;;;;;;;20.50;8.50;;;;;;;14.08;100.00;100177.20;180231;1263;43516;-60
2023/06/02 04:02:00;;;;;;;12.40;8.70;;;;;;;14.18;100.00;100185.30;180264;1262;58732;-59
2023/06/02 04:06:18;;;;;;;14.80;8.80;;;;;;;14.27;100.00;100187.66;180162;1266;46151;-59
2023/06/02 04:10:47;;;;;;;17.90;9.30;;;;;;;14.36;100.00;100184.99;180143;1263;44655;-59
2023/06/02 04:14:51;;;;;;;14.90;8.70;;;;;;;14.49;100.00;100186.55;179930;1262;45896;-59
2023/06/02 04:18:55;;;;;;;18.40;9.20;;;;;;;14.59;100.00;100189.48;180019;1262;84523;-86
2023/06/02 04:22:59;;;;;;;13.50;10.00;;;;;;;14.70;100.00;100190.38;177130;1267;61087;-88
2023/06/02 04:27:03;;;;;;;23.00;9.90;;;;;;;14.78;100.00;100195.17;177432;1265;46119;-89
2023/06/02 04:31:07;;;;;;;23.30;10.00;;;;;;;14.87;100.00;100200.77;177529;1267;46093;-89
2023/06/02 04:35:10;;;;;;;24.20;8.70;;;;;;;15.00;100.00;100200.63;178154;1265;44124;-88
2023/06/02 04:39:14;;;;;;;14.50;8.60;;;;;;;15.24;100.00;100199.91;177803;1265;46026;-87
2023/06/02 04:43:17;;;;;;;13.40;9.90;;;;;;;15.43;100.00;100205.17;179816;1264;58100;-88
2023/06/02 04:47:21;;;;;;;22.40;10.00;;;;;;;15.44;100.00;100207.36;179529;1264;44374;-87
2023/06/02 04:51:29;;;;;;;15.70;10.90;;;;;;;15.60;100.00;100204.41;178613;1264;44137;-87
2023/06/02 04:55:32;;;;;;;10.00;8.00;;;;;;;16.09;100.00;100201.73;178009;1264;46077;-87
2023/06/02 04:59:36;;;;;;;9.90;8.30;;;;;;;17.01;98.71;100199.52;177420;1267;46350;-87
2023/06/02 05:03:40;;;;;;;12.10;7.60;;;;;;;17.88;92.03;100194.13;176916;1264;56982;-86
2023/06/02 05:07:43;;;;;;;16.40;7.90;;;;;;;18.06;84.22;100195.20;177343;1264;46116;-87
2023/06/02 05:11:47;;;;;;;9.30;7.20;;;;;;;18.35;82.13;100203.29;178042;1264;44750;-87
2023/06/02 05:15:52;;;;;;;14.50;7.90;;;;;;;18.48;82.05;100210.89;178804;1265;46010;-86
2023/06/02 05:19:56;;;;;;;11.80;7.60;;;;;;;18.82;81.87;100213.91;177757;1265;44976;-87
2023/06/02 05:43:05;;;;;;;;;;;;;;;18.46;80.23;100227.09;148305;1261;45142;31
2023/06/02 05:52:10;;;;;;;14.50;8.80;;;;;;;18.10;82.79;100238.74;153602;1264;85963;-59
2023/06/02 06:22:03;;;;;;;10.00;6.00;;;;;;;19.23;81.07;100236.09;180285;1263;43896;-59
2023/06/02 06:26:09;;;;;;;9.20;5.40;;;;;;;19.67;76.90;100235.89;180096;1264;43830;-60
2023/06/02 06:30:15;;;;;;;9.40;5.40;;;;;;;20.17;76.22;100233.42;180602;1265;43655;-57
2023/06/02 06:34:19;;;;;;;7.30;5.70;;;;;;;20.48;73.93;100234.45;178168;1265;59677;-87
2023/06/02 06:38:23;;;;;;;9.20;4.70;;;;;;;20.65;72.62;100232.25;177658;1267;46129;-87
2023/06/02 06:42:26;;;;;;;16.60;6.10;;;;;;;20.56;71.26;100234.12;177094;1267;46014;-88
2023/06/02 06:46:29;;;;;;;12.70;4.90;;;;;;;20.44;69.79;100240.69;177984;1266;46071;-87
2023/06/02 06:50:33;;;;;;;11.80;3.90;;;;;;;20.34;66.80;100242.15;177694;1267;46177;-87
2023/06/02 06:54:36;;;;;;;13.20;3.90;;;;;;;20.32;65.98;100244.67;177446;1267;59266;-88
2023/06/02 06:58:40;;;;;;;8.40;4.10;;;;;;;20.34;68.11;100244.13;177127;1267;45527;-88
2023/06/02 07:02:44;;;;;;;9.60;4.40;;;;;;;20.13;67.47;100249.75;177048;1267;257711;-88
2023/06/02 07:06:47;;;;;;;10.30;4.50;;;;;;;20.21;67.79;100250.52;177227;1269;46125;-88
2023/06/02 07:10:51;;;;;;;9.90;5.10;;;;;;;20.24;67.92;100253.56;177347;1266;44500;-87
2023/06/02 07:14:54;;;;;;;10.30;5.20;;;;;;;20.31;67.49;100254.94;177309;1264;58535;-87
2023/06/02 07:18:57;;;;;;;8.50;4.30;;;;;;;20.17;68.88;100264.20;177149;1265;46114;-88
2023/06/02 07:23:01;;;;;;;11.80;4.40;;;;;;;20.11;69.39;100272.10;176924;1265;46070;-88
2023/06/02 07:27:05;;;;;;;9.10;4.40;;;;;;;20.01;70.10;100275.10;177942;1267;46257;-88
2023/06/02 07:31:08;;;;;;;9.40;4.60;;;;;;;19.97;69.92;100281.55;177314;1265;46001;-88
2023/06/02 07:39:43;;;;;;;7.70;3.50;;;;;;;19.83;69.88;100283.71;167342;1265;85797;-88
2023/06/02 07:44:14;;;;;;;7.60;4.10;;;;;;;19.79;69.85;100279.56;179606;1265;45048;-90
2023/06/02 07:48:44;;;;;;;6.60;4.50;;;;;;;19.99;70.94;100283.88;180060;1265;47495;-90
2023/06/02 07:57:05;;;;;;;11.20;4.70;;;;;;;20.66;68.56;100278.81;168097;1263;59610;-90
2023/06/02 08:13:22;;;;;;;11.10;4.80;;;;;;;19.99;68.52;100291.69;179530;1267;43637;-61
2023/06/02 08:17:29;;;;;;;16.20;4.20;;;;;;;19.79;69.55;100297.55;179651;1267;43567;-61
2023/06/02 08:21:33;;;;;;;12.20;5.50;;;;;;;19.59;70.93;100298.47;179744;1270;58888;-61
2023/06/02 08:25:37;;;;;;;9.70;4.30;;;;;;;19.42;72.22;100300.83;179645;1267;43783;-61
2023/06/02 08:29:44;;;;;;;6.60;3.60;;;;;;;19.25;71.76;100300.18;179736;1268;46092;-61
2023/06/02 08:33:47;;;;;;;15.60;5.50;;;;;;;19.17;72.44;100301.61;179629;1267;45955;-61
2023/06/02 08:38:16;;;;;;;11.10;5.40;;;;;;;19.20;73.50;100299.86;181337;1264;43047;-58
2023/06/02 08:42:22;;;;;;;13.10;4.70;;;;;;;19.40;72.81;100296.23;177552;1270;60491;-89
2023/06/02 08:46:26;;;;;;;9.40;4.20;;;;;;;19.51;69.64;100289.14;177953;1265;46089;-88
2023/06/02 08:50:35;;;;;;;6.70;4.10;;;;;;;19.46;69.85;100291.69;177315;1264;46056;-88
2023/06/02 08:54:40;;;;;;;8.30;4.10;;;;;;;19.48;69.24;100298.67;178041;1264;47272;-88
2023/06/02 08:58:45;;;;;;;10.70;4.70;;;;;;;19.37;68.38;100298.23;178237;1265;45975;-87
2023/06/02 09:02:49;;;;;;;9.10;5.00;;;;;;;19.12;68.25;100303.46;177884;1265;58238;-88
2023/06/02 09:07:11;;;;;;;11.20;4.00;;;;;;;19.35;70.13;100294.99;177450;1265;46100;-88
2023/06/02 09:11:16;;;;;;;7.80;4.10;;;;;;;19.87;68.31;100293.04;177391;1265;46025;-88
2023/06/02 09:20:14;;;;;;;16.20;4.10;;;;;;;20.03;65.02;100299.21;179911;1265;45986;-90
2023/06/02 09:28:40;;;;;;;16.30;4.50;;;;;;;19.65;61.70;100303.36;168776;1265;45252;-90
2023/06/02 09:33:10;;;;;;;17.50;5.10;;;;;;;19.84;60.96;100300.11;180391;1266;81426;-60
2023/06/02 09:58:07;;;;;;;9.70;3.70;;;;;;;21.20;60.58;100310.70;180069;1264;45147;-58
2023/06/02 10:02:14;;;;;;;11.50;5.40;;;;;;;21.45;60.02;100309.52;179858;1264;43902;-58
2023/06/02 10:06:36;;;;;;;13.70;5.90;;;;;;;21.64;59.43;100316.15;180067;1262;43520;-58
2023/06/02 10:16:10;;;;;;;5.10;3.50;;;;;;;21.01;62.32;100319.77;179920;1265;43724;-59
2023/06/02 10:20:20;;;;;;;5.10;3.60;;;;;;;20.78;62.71;100322.08;179799;1265;45104;-59
2023/06/02 10:24:52;;;;;;;5.10;3.90;;;;;;;20.63;59.30;100324.40;180017;1265;45934;-58
2023/06/02 10:28:55;;;;;;;5.90;4.30;;;;;;;20.39;60.51;100329.77;179893;1267;43788;-59
2023/06/02 10:32:59;;;;;;;15.40;5.70;;;;;;;20.02;63.81;100334.02;179885;1265;58364;-59
2023/06/02 10:37:10;;;;;;;12.60;5.10;;;;;;;19.58;68.04;100330.62;179880;1265;44863;-58
2023/06/02 10:41:14;;;;;;;6.20;4.00;;;;;;;19.33;68.88;100338.73;179765;1269;43840;-59
2023/06/02 10:45:18;;;;;;;7.90;4.80;;;;;;;19.05;69.77;100344.21;179760;1265;43902;-58
2023/06/02 10:49:55;;;;;;;7.40;4.70;;;;;;;18.84;70.74;100345.73;179909;1265;44263;-59
2023/06/02 10:54:01;;;;;;;4.60;3.40;;;;;;;18.65;72.90;100357.03;180006;1265;58474;-58
2023/06/02 10:58:12;;;;;;;7.50;4.70;;;;;;;18.67;72.15;100357.52;179918;1265;45908;-58
2023/06/02 11:02:56;;;;;;;8.30;4.30;;;;;;;18.70;71.26;100360.36;179771;1265;45926;-58
2023/06/02 11:07:21;;;;;;;9.40;3.60;;;;;;;18.77;70.97;100360.86;179788;1266;45996;-58
2023/06/02 11:11:51;;;;;;;6.70;4.80;;;;;;;18.94;70.66;100358.33;179559;1266;43531;-58
2023/06/02 11:15:54;;;;;;;10.40;5.20;;;;;;;19.14;70.60;100361.15;179524;1265;58225;-58
2023/06/02 11:20:05;;;;;;;14.40;6.90;;;;;;;19.36;70.73;100360.35;179686;1265;44640;-58
2023/06/02 11:24:25;;;;;;;10.70;6.80;;;;;;;19.64;70.41;100362.47;179766;1266;45911;-59
2023/06/02 11:28:28;;;;;;;10.80;6.10;;;;;;;19.91;68.89;100360.16;179769;1265;44608;-59
2023/06/02 11:32:31;;;;;;;7.50;5.30;;;;;;;20.10;68.34;100365.08;179589;1265;45042;-59
2023/06/02 11:36:39;;;;;;;12.30;5.90;;;;;;;20.08;69.12;100372.23;179892;1265;58729;-58
2023/06/02 11:45:36;;;;;;;6.10;5.30;;;;;;;19.81;69.92;100381.48;144647;1265;44173;-59
2023/06/02 11:49:39;;;;;;;9.00;6.60;;;;;;;19.77;70.14;100380.55;179855;1263;44921;-59
2023/06/02 11:53:45;;;;;;;11.30;6.90;;;;;;;19.58;70.30;100378.77;179897;1264;43537;-58
2023/06/02 11:57:49;;;;;;;12.80;7.10;;;;;;;19.42;69.81;100384.77;179965;1264;60079;-58
2023/06/02 12:01:54;;;;;;;8.90;7.60;;;;;;;19.24;69.81;100387.25;179874;1265;45137;-58
2023/06/02 12:06:14;;;;;;;8.30;6.10;;;;;;;19.15;72.45;100394.77;179839;1265;44576;-59
2023/06/02 12:10:17;;;;;;;8.50;7.60;;;;;;;19.25;72.03;100392.16;180053;1264;43965;-59
2023/06/02 12:14:40;;;;;;;10.20;6.90;;;;;;;19.39;72.26;100388.95;180004;1264;44761;-59
2023/06/02 12:18:43;;;;;;;12.40;7.10;;;;;;;19.60;69.82;100389.05;180167;1264;58183;-59
2023/06/02 12:23:11;;;;;;;13.30;8.80;;;;;;;19.83;69.75;100392.18;180042;1264;44660;-59
2023/06/02 12:27:23;;;;;;;9.00;8.00;;;;;;;20.05;68.67;100389.42;179869;1265;45982;-59
2023/06/02 12:31:28;;;;;;;12.60;7.90;;;;;;;20.23;69.33;100392.66;179722;1264;46059;-59
2023/06/02 12:35:31;;;;;;;13.40;9.00;;;;;;;20.31;67.33;100398.38;179672;1265;45050;-59
2023/06/02 12:40:28;;;;;;;10.90;8.10;;;;;;;20.12;68.30;100392.92;179590;1264;59270;-59
2023/06/02 12:44:32;;;;;;;8.60;7.10;;;;;;;19.77;68.06;100393.13;179657;1265;46143;-59
2023/06/02 12:48:35;;;;;;;15.70;6.20;;;;;;;19.35;70.54;100396.03;179845;1265;44754;-59
2023/06/02 12:52:39;;;;;;;11.60;7.00;;;;;;;19.12;72.80;100403.08;180000;1265;44056;-58
2023/06/02 12:56:44;;;;;;;10.00;7.40;;;;;;;18.90;73.27;100406.99;180052;1263;43611;-58
2023/06/02 13:00:47;;;;;;;8.80;7.10;;;;;;;18.79;73.18;100407.54;180028;1263;57620;-58
2023/06/02 13:05:40;;;;;;;7.20;5.90;;;;;;;18.66;72.72;100419.41;179990;1265;46741;-59
2023/06/02 13:09:43;;;;;;;7.30;4.70;;;;;;;18.68;74.01;100416.27;179908;1265;45257;-59
2023/06/02 13:13:52;;;;;;;7.00;6.10;;;;;;;18.82;73.01;100421.69;179844;1263;45020;-58
2023/06/02 13:17:55;;;;;;;6.10;5.20;;;;;;;19.01;71.64;100417.77;180086;1263;43522;-59
2023/06/02 13:21:59;;;;;;;9.90;7.10;;;;;;;19.20;70.22;100411.95;179980;1265;59597;-59
2023/06/02 13:26:02;;;;;;;8.90;6.20;;;;;;;19.38;70.74;100407.65;179936;1264;44912;-59
2023/06/02 13:30:10;;;;;;;8.80;5.90;;;;;;;19.54;70.10;100411.83;180038;1264;43552;-59
2023/06/02 13:38:45;;;;;;;7.30;6.40;;;;;;;19.82;70.64;100422.28;141685;1289;44147;-59
2023/06/02 13:43:13;;;;;;;7.00;4.70;;;;;;;20.17;68.33;100427.64;143255;1258;58187;-58
2023/06/02 13:47:36;;;;;;;4.20;3.40;;;;;;;20.42;63.28;100429.81;142662;1265;44896;-59
2023/06/02 14:01:25;;;;;;;4.60;3.70;;;;;;;20.42;65.83;100429.85;156071;1265;44216;-59
2023/06/02 14:05:28;;;;;;;4.40;2.60;;;;;;;20.20;65.65;100425.98;179895;1265;58456;-59
2023/06/02 14:09:41;;;;;;;3.60;2.40;;;;;;;20.14;63.15;100424.23;179907;1264;44919;-59
2023/06/02 14:13:44;;;;;;;4.20;2.30;;;;;;;20.26;62.02;100417.55;179733;1265;44310;-59
2023/06/02 14:23:26;;;;;;;4.20;2.00;;;;;;;20.85;60.25;100405.58;179956;1265;43565;-60
2023/06/02 14:27:33;;;;;;;3.70;2.20;;;;;;;21.03;59.37;100406.65;179885;1265;59211;-60
2023/06/02 14:32:02;;;;;;;1.40;1.30;;;;;;;21.06;58.46;100409.52;179974;1265;44717;-59
2023/06/02 14:36:07;;;;;;;2.70;1.40;;;;;;;21.32;57.13;100405.10;179585;1265;44624;-59
2023/06/02 14:40:11;;;;;;;3.20;1.80;;;;;;;21.41;53.89;100402.02;179760;1265;45972;-60
2023/06/02 14:44:15;;;;;;;1.80;1.40;;;;;;;21.41;54.77;100404.73;179699;1265;44112;-59
2023/06/02 14:48:18;;;;;;;3.60;1.30;;;;;;;21.29;57.37;100410.89;179632;1267;57350;-59
2023/06/02 14:52:22;;;;;;;2.00;1.70;;;;;;;20.86;55.31;100428.16;179955;1266;46036;-59
2023/06/02 14:57:16;;;;;;;2.40;1.10;;;;;;;20.60;55.90;100419.98;180004;1265;44924;-60
2023/06/02 15:01:19;;;;;;;3.40;1.00;;;;;;;20.48;56.03;100425.86;180024;1265;45915;-60
2023/06/02 15:05:22;;;;;;;2.40;1.10;;;;;;;20.36;58.12;100432.94;179894;1265;45055;-60
2023/06/02 15:09:25;;;;;;;1.40;1.00;;;;;;;20.14;58.28;100437.45;179789;1265;58319;-59
2023/06/02 15:13:30;;;;;;;1.90;1.10;;;;;;;19.92;56.73;100439.52;179730;1265;44051;-59
2023/06/02 15:17:36;;;;;;;3.50;1.70;;;;;;;19.77;56.35;100441.55;179729;1265;44696;-59
2023/06/02 15:21:40;;;;;;;3.10;1.10;;;;;;;19.90;57.72;100444.91;179452;1265;45985;-59
2023/06/02 15:25:45;;;;;;;2.40;1.10;;;;;;;20.17;57.68;100440.05;179943;1265;43848;-59
2023/06/02 15:29:48;;;;;;;2.40;1.70;;;;;;;20.34;54.80;100440.31;179821;1265;60235;-59
2023/06/02 15:33:51;;;;;;;4.10;1.60;;;;;;;20.39;55.00;100441.77;179883;1265;43796;-59
2023/06/02 15:37:54;;;;;;;2.10;1.10;;;;;;;20.20;54.04;100448.13;179920;1265;43758;-59
2023/06/02 15:42:00;;;;;;;10.50;1.30;;;;;;;19.97;54.15;100449.11;180009;1265;43828;-59
2023/06/02 15:46:03;;;;;;;4.60;1.80;;;;;;;19.81;55.52;100445.55;179901;1265;46106;-59
2023/06/02 15:50:29;;;;;;;2.60;1.40;;;;;;;19.72;53.93;100448.73;180142;1265;58441;-58
2023/06/02 15:54:36;;;;;;;4.40;1.10;;;;;;;19.64;53.01;100447.85;179999;1265;85930;-59
2023/06/02 15:58:41;;;;;;;3.40;1.40;;;;;;;19.79;54.31;100443.98;179866;1265;43937;-59
2023/06/02 16:02:44;;;;;;;4.10;1.40;;;;;;;19.90;52.14;100443.92;179881;1265;44482;-59
2023/06/02 16:07:39;;;;;;;2.80;1.60;;;;;;;19.94;52.16;100445.83;179875;1265;45992;-59
2023/06/02 16:11:42;;;;;;;4.60;1.60;;;;;;;20.09;52.48;100446.27;180064;1264;58022;-59
2023/06/02 16:15:45;;;;;;;6.90;1.60;;;;;;;20.19;51.70;100439.30;180135;1265;43662;-59
2023/06/02 16:19:49;;;;;;;2.10;1.00;;;;;;;20.27;51.40;100444.31;180060;1265;45921;-59
2023/06/02 16:23:52;;;;;;;3.50;1.60;;;;;;;20.34;52.25;100445.45;179966;1265;44861;-59
2023/06/02 16:27:59;;;;;;;4.50;1.70;;;;;;;20.37;50.34;100444.63;179941;1266;45054;-59
2023/06/02 16:32:03;;;;;;;4.40;1.20;;;;;;;20.43;50.47;100445.03;179888;1265;58910;-59
2023/06/02 16:36:08;;;;;;;;;;;;;;;20.39;50.48;100448.06;179682;1265;45898;-59
2023/06/02 16:40:12;;;;;;;3.10;0.80;;;;;;;20.36;50.66;100452.51;179635;1265;43439;-58
2023/06/02 16:44:15;;;;;;;7.10;1.60;;;;;;;20.37;51.31;100458.52;179776;1265;43784;-59
2023/06/02 16:48:20;;;;;;;2.60;1.80;;;;;;;20.31;50.23;100462.73;179896;1265;46616;-59
2023/06/02 16:52:23;;;;;;;4.10;1.40;;;;;;;20.08;49.57;100470.59;180020;1262;59597;-59
2023/06/02 16:56:26;;;;;;;3.00;1.40;;;;;;;19.91;48.85;100473.89;180054;1264;45322;-59
2023/06/02 17:00:35;;;;;;;9.10;1.50;;;;;;;19.64;48.87;100483.48;180065;1264;43909;-59
2023/06/02 17:04:38;;;;;;;3.50;1.30;;;;;;;19.47;49.13;100489.84;179857;1265;44689;-59
2023/06/02 17:08:41;;;;;;;2.00;1.20;;;;;;;19.29;49.06;100491.81;179978;1264;43820;-59
2023/06/02 17:12:44;;;;;;;2.60;1.30;;;;;;;19.17;49.15;100497.14;179943;1265;58998;-59
2023/06/02 17:16:51;;;;;;;3.00;1.20;;;;;;;19.03;50.00;100499.34;179882;1264;44950;-60
2023/06/02 17:20:55;;;;;;;3.50;1.30;;;;;;;18.86;49.17;100504.23;179793;1265;43864;-60
2023/06/02 17:24:58;;;;;;;2.20;1.40;;;;;;;18.79;48.93;100503.87;179781;1262;45191;-59
2023/06/02 17:29:02;;;;;;;4.80;1.50;;;;;;;18.73;50.99;100499.95;179947;1264;44979;-59
2023/06/02 17:33:37;;;;;;;1.50;1.20;;;;;;;18.66;52.01;100501.11;179909;1264;59269;-59
2023/06/02 17:37:41;;;;;;;2.80;1.40;;;;;;;18.59;51.35;100508.08;179942;1265;45237;-59
2023/06/02 17:42:11;;;;;;;5.70;1.90;;;;;;;18.48;51.69;100513.70;180011;1264;43777;-60
2023/06/02 17:46:14;;;;;;;6.50;1.80;;;;;;;18.35;52.12;100515.75;179961;1264;45304;-59
2023/06/02 17:50:17;;;;;;;9.50;2.00;;;;;;;18.22;52.75;100523.27;179999;1264;45032;-59
2023/06/02 17:54:51;;;;;;;4.50;2.00;;;;;;;18.04;52.51;100526.10;179853;1265;57656;-60
2023/06/02 17:58:55;;;;;;;2.20;1.20;;;;;;;17.82;51.47;100529.36;179841;1265;45992;-60
2023/06/02 18:02:58;;;;;;;2.70;1.60;;;;;;;17.66;51.13;100531.05;179978;1265;44575;-60
2023/06/02 18:07:04;;;;;;;4.30;1.60;;;;;;;17.54;51.57;100536.83;179881;1265;44975;-60
2023/06/02 18:11:08;;;;;;;4.00;1.80;;;;;;;17.41;51.70;100546.41;179962;1263;43823;-60
2023/06/02 18:15:42;;;;;;;3.20;1.90;;;;;;;17.30;52.02;100553.00;179888;1267;58757;-59
2023/06/02 18:20:12;;;;;;;8.90;1.70;;;;;;;17.17;52.52;100555.45;180363;1263;43931;-60
2023/06/02 18:41:13;;;;;;;2.70;1.60;;;;;;;16.42;53.80;100583.10;179896;1264;58673;-60
2023/06/02 18:45:16;;;;;;;;;;;;;;;16.29;53.81;100586.08;179918;1264;46011;-59
2023/06/02 18:49:19;;;;;;;4.90;2.50;;;;;;;16.14;54.21;100590.29;179809;1265;43332;-60
2023/06/02 18:53:23;;;;;;;3.60;1.90;;;;;;;15.99;54.00;100596.21;179950;1265;44568;-59
2023/06/02 18:57:32;;;;;;;6.10;2.40;;;;;;;15.86;53.83;100601.92;179714;1265;45892;-59
2023/06/02 19:01:35;;;;;;;4.40;1.60;;;;;;;15.73;53.76;100608.02;179806;1265;58790;-59
2023/06/02 19:05:39;;;;;;;6.80;2.70;;;;;;;15.62;53.67;100610.61;179591;1263;379647;-59
2023/06/02 19:09:42;;;;;;;5.00;2.40;;;;;;;15.50;53.74;100607.79;179943;1265;44695;-59
2023/06/02 19:13:45;;;;;;;5.90;2.90;;;;;;;15.35;54.42;100609.79;179875;1265;43803;-59
2023/06/02 19:17:52;;;;;;;5.30;2.00;;;;;;;15.17;54.84;100613.25;180047;1264;46067;-59
2023/06/02 19:21:59;;;;;;;4.60;2.40;;;;;;;14.95;54.88;100613.16;180143;1264;58489;-60
2023/06/02 19:26:06;;;;;;;6.80;2.40;;;;;;;14.75;54.96;100615.09;180085;1264;43908;-60
2023/06/02 19:30:09;;;;;;;3.20;2.20;;;;;;;14.59;55.47;100624.43;180013;1262;43836;-60
2023/06/02 19:34:26;;;;;;;5.40;2.40;;;;;;;14.41;55.68;100633.36;180017;1265;44814;-59
2023/06/02 19:38:29;;;;;;;4.00;2.40;;;;;;;14.25;55.82;100645.85;179831;1264;43528;-60
2023/06/02 19:42:32;;;;;;;2.80;1.70;;;;;;;14.10;55.95;100649.33;179919;1263;58406;-59
2023/06/02 19:46:37;;;;;;;5.30;1.70;;;;;;;13.97;56.30;100650.73;180103;1264;45353;-60
2023/06/02 19:50:42;;;;;;;1.70;1.20;;;;;;;13.85;56.30;100653.73;180029;1264;44866;-60
2023/06/02 19:54:46;;;;;;;3.40;1.50;;;;;;;13.72;56.61;100662.09;179939;1266;44179;-60
2023/06/02 19:58:49;;;;;;;2.40;1.40;;;;;;;13.57;56.84;100663.70;179960;1264;43942;-60
2023/06/02 20:02:52;;;;;;;2.90;1.60;;;;;;;13.41;57.67;100665.80;179999;1264;59503;-60
2023/06/02 20:07:27;;;;;;;1.90;1.20;;;;;;;13.29;57.93;100668.98;180000;1264;43621;-60
2023/06/02 20:11:31;;;;;;;4.40;1.50;;;;;;;13.18;57.56;100671.02;180065;1264;43746;-59
2023/06/02 20:15:38;;;;;;;10.40;2.20;;;;;;;13.12;57.66;100676.13;179975;1263;43788;-59
2023/06/02 20:19:42;;;;;;;2.30;1.40;;;;;;;13.05;57.25;100678.54;180011;1264;44872;-59
2023/06/02 20:23:46;;;;;;;5.60;1.20;;;;;;;13.03;57.89;100683.33;179933;1265;59453;-60
2023/06/02 20:27:51;;;;;;;2.50;1.00;;;;;;;12.99;58.29;100692.33;179983;1265;43885;-60
2023/06/02 20:31:56;;;;;;;5.20;1.80;;;;;;;12.93;58.73;100696.20;180072;1265;43825;-60
2023/06/02 20:36:06;;;;;;;3.30;1.20;;;;;;;12.84;58.90;100702.31;179903;1265;45355;-60
2023/06/02 20:40:09;;;;;;;3.70;1.30;;;;;;;12.73;58.80;100709.48;179915;1264;43835;-59
2023/06/02 20:44:14;;;;;;;6.70;1.90;;;;;;;12.66;59.02;100712.05;179882;1262;58187;-60
2023/06/02 20:48:18;;;;;;;1.80;1.60;;;;;;;12.60;59.11;100721.61;179872;1263;45243;-59
2023/06/02 20:52:21;;;;;;;2.10;1.50;;;;;;;12.53;59.04;100729.30;179946;1263;45958;-60
2023/06/02 20:56:28;;;;;;;7.70;2.20;;;;;;;12.46;58.95;100730.39;179913;1264;46017;-60
2023/06/02 21:00:31;;;;;;;6.60;1.80;;;;;;;12.40;59.15;100736.05;179882;1263;44612;-60
2023/06/02 21:04:35;;;;;;;4.10;2.20;;;;;;;12.34;59.40;100738.52;179839;1263;57626;-59
2023/06/02 21:08:38;;;;;;;5.10;2.20;;;;;;;12.25;59.97;100740.11;179998;1264;43567;-60
2023/06/02 21:12:41;;;;;;;4.10;2.20;;;;;;;12.16;60.20;100741.18;179883;1264;45953;-60
2023/06/02 21:16:44;;;;;;;2.80;1.70;;;;;;;12.07;60.31;100746.41;179336;1265;87633;-87
2023/06/02 21:20:47;;;;;;;2.90;2.00;;;;;;;11.97;60.73;100752.65;179134;1265;43892;-86
2023/06/02 21:24:50;;;;;;;4.00;1.90;;;;;;;11.86;60.50;100754.23;177793;1267;58282;-87
2023/06/02 21:28:53;;;;;;;6.10;1.70;;;;;;;11.79;60.80;100756.52;177666;1265;46056;-87
2023/06/02 21:32:56;;;;;;;6.30;2.20;;;;;;;11.70;61.22;100755.13;177618;1266;46122;-86